Terminal Aerodrome Forecast
Issued by NWS La Crosse, WI

Current Version | Previous Version | Text Only | Print | Product List | Glossary On
Versions: 1 2 3 4 5 6 7 8 9 10 11 12 13 14 15 16 17 18 19 20 21 22 23 24 25 26
000
FTUS43 KARX 231728
TAFLSE
TAF
KLSE 231728Z 2318/2418 15014KT P6SM OVC040
     FM231930 16013KT P6SM OVC025
     FM232300 16011KT P6SM VCSH OVC020
     FM240800 17005KT 3SM -RA OVC015 WS020/22035KT
     FM241100 16004KT 2SM RA OVC008=

USA.gov is the U.S. government's official web portal to all federal, state and local government web resources and services.